sensor_id;sensor_type;location;lat;lon;timestamp;temperature;humidity
16477;DHT22;8349;50.928;6.376;2023-03-01T00:02:14;0.00;99.90
16477;DHT22;8349;50.928;6.376;2023-03-01T00:04:40;-0.10;99.90
16477;DHT22;8349;50.928;6.376;2023-03-01T00:07:07;-0.20;99.90
16477;DHT22;8349;50.928;6.376;2023-03-01T00:09:35;-0.30;99.90
16477;DHT22;8349;50.928;6.376;2023-03-01T00:12:02;-0.30;99.90
16477;DHT22;8349;50.928;6.376;2023-03-01T00:14:29;-0.10;99.90
16477;DHT22;8349;50.928;6.376;2023-03-01T00:16:57;-0.10;99.90
16477;DHT22;8349;50.928;6.376;2023-03-01T00:19:24;0.00;99.90
16477;DHT22;8349;50.928;6.376;2023-03-01T00:21:50;0.00;99.90
16477;DHT22;8349;50.928;6.376;2023-03-01T00:24:17;0.00;99.90
16477;DHT22;8349;50.928;6.376;2023-03-01T00:26:44;0.10;99.90
16477;DHT22;8349;50.928;6.376;2023-03-01T00:29:11;0.10;99.90
16477;DHT22;8349;50.928;6.376;2023-03-01T00:31:38;0.20;99.90
16477;DHT22;8349;50.928;6.376;2023-03-01T00:34:06;0.20;99.90
16477;DHT22;8349;50.928;6.376;2023-03-01T00:36:34;0.20;99.90
16477;DHT22;8349;50.928;6.376;2023-03-01T00:39:01;0.20;99.90
16477;DHT22;8349;50.928;6.376;2023-03-01T00:41:28;0.10;99.90
16477;DHT22;8349;50.928;6.376;2023-03-01T00:43:55;0.00;99.90
16477;DHT22;8349;50.928;6.376;2023-03-01T00:46:22;-0.10;99.90
16477;DHT22;8349;50.928;6.376;2023-03-01T00:48:50;-0.10;99.90
16477;DHT22;8349;50.928;6.376;2023-03-01T00:51:19;-0.20;99.90
16477;DHT22;8349;50.928;6.376;2023-03-01T00:53:47;-0.20;99.90
16477;DHT22;8349;50.928;6.376;2023-03-01T00:56:14;-0.30;99.90
16477;DHT22;8349;50.928;6.376;2023-03-01T00:58:41;-0.40;99.90
16477;DHT22;8349;50.928;6.376;2023-03-01T01:01:08;-0.40;99.90
16477;DHT22;8349;50.928;6.376;2023-03-01T01:03:43;-0.40;99.90
16477;DHT22;8349;50.928;6.376;2023-03-01T01:06:13;-0.50;99.90
16477;DHT22;8349;50.928;6.376;2023-03-01T01:08:41;-0.60;99.90
16477;DHT22;8349;50.928;6.376;2023-03-01T01:11:08;-0.60;99.90
16477;DHT22;8349;50.928;6.376;2023-03-01T01:13:35;-0.60;99.90
16477;DHT22;8349;50.928;6.376;2023-03-01T01:16:02;-0.70;99.90
16477;DHT22;8349;50.928;6.376;2023-03-01T01:18:29;-0.70;99.90
16477;DHT22;8349;50.928;6.376;2023-03-01T01:20:56;-0.70;99.90
16477;DHT22;8349;50.928;6.376;2023-03-01T01:23:22;-0.70;99.90
16477;DHT22;8349;50.928;6.376;2023-03-01T01:25:51;-0.80;99.90
16477;DHT22;8349;50.928;6.376;2023-03-01T01:28:17;-0.80;99.90
16477;DHT22;8349;50.928;6.376;2023-03-01T01:30:45;-0.80;99.90
16477;DHT22;8349;50.928;6.376;2023-03-01T01:33:11;-0.90;99.90
16477;DHT22;8349;50.928;6.376;2023-03-01T01:35:38;-0.90;99.90
16477;DHT22;8349;50.928;6.376;2023-03-01T01:38:05;-0.80;99.90
16477;DHT22;8349;50.928;6.376;2023-03-01T01:40:33;-0.90;99.90
16477;DHT22;8349;50.928;6.376;2023-03-01T01:43:01;-0.90;99.90
16477;DHT22;8349;50.928;6.376;2023-03-01T01:45:29;-0.90;99.90
16477;DHT22;8349;50.928;6.376;2023-03-01T01:47:57;-1.00;99.90
16477;DHT22;8349;50.928;6.376;2023-03-01T01:50:25;-0.90;99.90
16477;DHT22;8349;50.928;6.376;2023-03-01T01:52:52;-0.90;99.90
16477;DHT22;8349;50.928;6.376;2023-03-01T01:55:20;-0.90;99.90
16477;DHT22;8349;50.928;6.376;2023-03-01T01:57:49;-1.00;99.90
16477;DHT22;8349;50.928;6.376;2023-03-01T02:00:20;-1.00;99.90
16477;DHT22;8349;50.928;6.376;2023-03-01T02:02:48;-1.00;99.90
16477;DHT22;8349;50.928;6.376;2023-03-01T02:05:17;-1.00;99.90
16477;DHT22;8349;50.928;6.376;2023-03-01T02:07:48;-1.10;99.90
16477;DHT22;8349;50.928;6.376;2023-03-01T02:10:19;-1.20;99.90
16477;DHT22;8349;50.928;6.376;2023-03-01T02:12:46;-1.20;99.90
16477;DHT22;8349;50.928;6.376;2023-03-01T02:15:12;-1.30;99.90
16477;DHT22;8349;50.928;6.376;2023-03-01T02:17:40;-1.40;99.90
16477;DHT22;8349;50.928;6.376;2023-03-01T02:20:10;-1.50;99.90
16477;DHT22;8349;50.928;6.376;2023-03-01T02:22:43;-1.50;99.90
16477;DHT22;8349;50.928;6.376;2023-03-01T02:25:12;-1.50;99.90
16477;DHT22;8349;50.928;6.376;2023-03-01T02:27:45;-1.40;99.90
16477;DHT22;8349;50.928;6.376;2023-03-01T02:30:16;-1.50;99.90
16477;DHT22;8349;50.928;6.376;2023-03-01T02:32:44;-1.60;99.90
16477;DHT22;8349;50.928;6.376;2023-03-01T02:35:10;-1.70;99.90
16477;DHT22;8349;50.928;6.376;2023-03-01T02:37:38;-1.70;99.90
16477;DHT22;8349;50.928;6.376;2023-03-01T02:40:06;-1.70;99.90
16477;DHT22;8349;50.928;6.376;2023-03-01T02:42:40;-1.70;99.90
16477;DHT22;8349;50.928;6.376;2023-03-01T02:45:10;-1.70;99.90
16477;DHT22;8349;50.928;6.376;2023-03-01T02:47:38;-1.60;99.90
16477;DHT22;8349;50.928;6.376;2023-03-01T02:50:10;-1.60;99.90
16477;DHT22;8349;50.928;6.376;2023-03-01T02:52:41;-1.40;99.90
16477;DHT22;8349;50.928;6.376;2023-03-01T02:55:11;-1.40;99.90
16477;DHT22;8349;50.928;6.376;2023-03-01T02:57:40;-1.40;99.90
16477;DHT22;8349;50.928;6.376;2023-03-01T03:00:08;-1.30;99.90
16477;DHT22;8349;50.928;6.376;2023-03-01T03:02:37;-1.30;99.90
16477;DHT22;8349;50.928;6.376;2023-03-01T03:05:10;-1.30;99.90
16477;DHT22;8349;50.928;6.376;2023-03-01T03:07:38;-1.40;99.90
16477;DHT22;8349;50.928;6.376;2023-03-01T03:10:06;-1.40;99.90
16477;DHT22;8349;50.928;6.376;2023-03-01T03:12:34;-1.40;99.90
16477;DHT22;8349;50.928;6.376;2023-03-01T03:15:01;-1.50;99.90
16477;DHT22;8349;50.928;6.376;2023-03-01T03:17:34;-1.50;99.90
16477;DHT22;8349;50.928;6.376;2023-03-01T03:20:03;-1.50;99.90
16477;DHT22;8349;50.928;6.376;2023-03-01T03:22:30;-1.50;99.90
16477;DHT22;8349;50.928;6.376;2023-03-01T03:24:57;-1.50;99.90
16477;DHT22;8349;50.928;6.376;2023-03-01T03:27:23;-1.60;99.90
16477;DHT22;8349;50.928;6.376;2023-03-01T03:29:50;-1.60;99.90
16477;DHT22;8349;50.928;6.376;2023-03-01T03:32:20;-1.60;99.90
16477;DHT22;8349;50.928;6.376;2023-03-01T03:34:47;-1.60;99.90
16477;DHT22;8349;50.928;6.376;2023-03-01T03:37:16;-1.70;99.90
16477;DHT22;8349;50.928;6.376;2023-03-01T03:39:56;-1.70;99.90
16477;DHT22;8349;50.928;6.376;2023-03-01T03:42:23;-1.70;99.90
16477;DHT22;8349;50.928;6.376;2023-03-01T03:44:50;-1.70;99.90
16477;DHT22;8349;50.928;6.376;2023-03-01T03:47:16;-1.80;99.90
16477;DHT22;8349;50.928;6.376;2023-03-01T03:49:43;-1.80;99.90
16477;DHT22;8349;50.928;6.376;2023-03-01T03:52:10;-1.90;99.90
16477;DHT22;8349;50.928;6.376;2023-03-01T03:54:40;-1.90;99.90
16477;DHT22;8349;50.928;6.376;2023-03-01T03:57:07;-2.00;99.90
16477;DHT22;8349;50.928;6.376;2023-03-01T03:59:33;-2.00;99.90
16477;DHT22;8349;50.928;6.376;2023-03-01T04:02:00;-2.00;99.90
16477;DHT22;8349;50.928;6.376;2023-03-01T04:04:27;-2.00;99.90
16477;DHT22;8349;50.928;6.376;2023-03-01T04:06:54;-1.90;99.90
16477;DHT22;8349;50.928;6.376;2023-03-01T04:09:20;-1.90;99.90
16477;DHT22;8349;50.928;6.376;2023-03-01T04:11:49;-2.00;99.90
16477;DHT22;8349;50.928;6.376;2023-03-01T04:14:15;-2.00;99.90
16477;DHT22;8349;50.928;6.376;2023-03-01T04:16:42;-2.00;99.90
16477;DHT22;8349;50.928;6.376;2023-03-01T04:19:09;-2.00;99.90
16477;DHT22;8349;50.928;6.376;2023-03-01T04:21:36;-2.00;99.90
16477;DHT22;8349;50.928;6.376;2023-03-01T04:24:03;-2.10;99.90
16477;DHT22;8349;50.928;6.376;2023-03-01T04:26:30;-2.10;99.90
16477;DHT22;8349;50.928;6.376;2023-03-01T04:28:58;-2.20;99.90
16477;DHT22;8349;50.928;6.376;2023-03-01T04:31:25;-2.20;99.90
16477;DHT22;8349;50.928;6.376;2023-03-01T04:33:52;-2.20;99.90
16477;DHT22;8349;50.928;6.376;2023-03-01T04:36:20;-2.30;99.90
16477;DHT22;8349;50.928;6.376;2023-03-01T04:38:47;-2.30;99.90
16477;DHT22;8349;50.928;6.376;2023-03-01T04:41:15;-2.20;99.90
16477;DHT22;8349;50.928;6.376;2023-03-01T04:43:42;-2.20;99.90
16477;DHT22;8349;50.928;6.376;2023-03-01T04:46:10;-2.20;99.90
16477;DHT22;8349;50.928;6.376;2023-03-01T04:48:38;-2.20;99.90
16477;DHT22;8349;50.928;6.376;2023-03-01T04:51:05;-2.20;99.90
16477;DHT22;8349;50.928;6.376;2023-03-01T04:53:33;-2.10;99.90
16477;DHT22;8349;50.928;6.376;2023-03-01T04:56:01;-2.10;99.90
16477;DHT22;8349;50.928;6.376;2023-03-01T04:58:28;-2.20;99.90
16477;DHT22;8349;50.928;6.376;2023-03-01T05:00:55;-2.20;99.90
16477;DHT22;8349;50.928;6.376;2023-03-01T05:03:24;-2.20;99.90
16477;DHT22;8349;50.928;6.376;2023-03-01T05:05:51;-2.10;99.90
16477;DHT22;8349;50.928;6.376;2023-03-01T05:08:19;-2.10;99.90
16477;DHT22;8349;50.928;6.376;2023-03-01T05:10:47;-2.10;99.90
16477;DHT22;8349;50.928;6.376;2023-03-01T05:13:14;-2.20;99.90
16477;DHT22;8349;50.928;6.376;2023-03-01T05:15:46;-2.20;99.90
16477;DHT22;8349;50.928;6.376;2023-03-01T05:18:13;-2.20;99.90
16477;DHT22;8349;50.928;6.376;2023-03-01T05:20:41;-2.20;99.90
16477;DHT22;8349;50.928;6.376;2023-03-01T05:23:10;-2.30;99.90
16477;DHT22;8349;50.928;6.376;2023-03-01T05:25:36;-2.30;99.90
16477;DHT22;8349;50.928;6.376;2023-03-01T05:28:05;-2.30;99.90
16477;DHT22;8349;50.928;6.376;2023-03-01T05:30:32;-2.30;99.90
16477;DHT22;8349;50.928;6.376;2023-03-01T05:33:00;-2.40;99.90
16477;DHT22;8349;50.928;6.376;2023-03-01T05:35:27;-2.40;99.90
16477;DHT22;8349;50.928;6.376;2023-03-01T05:37:56;-2.40;99.90
16477;DHT22;8349;50.928;6.376;2023-03-01T05:40:23;-2.40;99.90
16477;DHT22;8349;50.928;6.376;2023-03-01T05:42:51;-2.40;99.90
16477;DHT22;8349;50.928;6.376;2023-03-01T05:45:18;-2.40;99.90
16477;DHT22;8349;50.928;6.376;2023-03-01T05:47:47;-2.50;99.90
16477;DHT22;8349;50.928;6.376;2023-03-01T05:50:15;-2.40;99.90
16477;DHT22;8349;50.928;6.376;2023-03-01T05:52:44;-2.40;99.90
16477;DHT22;8349;50.928;6.376;2023-03-01T05:55:13;-2.40;99.90
16477;DHT22;8349;50.928;6.376;2023-03-01T05:57:39;-2.40;99.90
16477;DHT22;8349;50.928;6.376;2023-03-01T06:00:07;-2.40;99.90
16477;DHT22;8349;50.928;6.376;2023-03-01T06:02:38;-2.30;99.90
16477;DHT22;8349;50.928;6.376;2023-03-01T06:05:05;-2.30;99.90
16477;DHT22;8349;50.928;6.376;2023-03-01T06:07:32;-2.30;99.90
16477;DHT22;8349;50.928;6.376;2023-03-01T06:10:00;-2.30;99.90
16477;DHT22;8349;50.928;6.376;2023-03-01T06:12:31;-2.40;99.90
16477;DHT22;8349;50.928;6.376;2023-03-01T06:14:58;-2.30;99.90
16477;DHT22;8349;50.928;6.376;2023-03-01T06:17:25;-2.30;99.90
16477;DHT22;8349;50.928;6.376;2023-03-01T06:19:51;-2.30;99.90
16477;DHT22;8349;50.928;6.376;2023-03-01T06:22:18;-2.30;99.90
16477;DHT22;8349;50.928;6.376;2023-03-01T06:24:45;-2.30;99.90
16477;DHT22;8349;50.928;6.376;2023-03-01T06:27:12;-2.40;99.90
16477;DHT22;8349;50.928;6.376;2023-03-01T06:29:40;-2.30;99.90
16477;DHT22;8349;50.928;6.376;2023-03-01T06:32:07;-2.30;99.90
16477;DHT22;8349;50.928;6.376;2023-03-01T06:34:34;-2.40;99.90
16477;DHT22;8349;50.928;6.376;2023-03-01T06:37:01;-2.30;99.90
16477;DHT22;8349;50.928;6.376;2023-03-01T06:39:30;-2.20;99.90
16477;DHT22;8349;50.928;6.376;2023-03-01T06:41:57;-2.10;99.90
16477;DHT22;8349;50.928;6.376;2023-03-01T06:44:24;-2.10;99.90
16477;DHT22;8349;50.928;6.376;2023-03-01T06:46:53;-2.10;99.90
16477;DHT22;8349;50.928;6.376;2023-03-01T06:49:19;-2.10;99.90
16477;DHT22;8349;50.928;6.376;2023-03-01T06:51:46;-2.00;99.90
16477;DHT22;8349;50.928;6.376;2023-03-01T06:54:13;-1.90;99.90
16477;DHT22;8349;50.928;6.376;2023-03-01T06:56:40;-1.90;99.90
16477;DHT22;8349;50.928;6.376;2023-03-01T06:59:07;-2.00;99.90
16477;DHT22;8349;50.928;6.376;2023-03-01T07:01:34;-1.90;99.90
16477;DHT22;8349;50.928;6.376;2023-03-01T07:04:02;-1.80;99.90
16477;DHT22;8349;50.928;6.376;2023-03-01T07:06:29;-1.80;99.90
16477;DHT22;8349;50.928;6.376;2023-03-01T07:08:56;-1.80;99.90
16477;DHT22;8349;50.928;6.376;2023-03-01T07:11:22;-1.70;99.90
16477;DHT22;8349;50.928;6.376;2023-03-01T07:13:49;-1.70;99.90
16477;DHT22;8349;50.928;6.376;2023-03-01T07:16:16;-1.70;99.90
16477;DHT22;8349;50.928;6.376;2023-03-01T07:18:43;-1.60;99.90
16477;DHT22;8349;50.928;6.376;2023-03-01T07:21:12;-1.50;99.90
16477;DHT22;8349;50.928;6.376;2023-03-01T07:23:39;-1.50;99.90
16477;DHT22;8349;50.928;6.376;2023-03-01T07:26:05;-1.40;99.90
16477;DHT22;8349;50.928;6.376;2023-03-01T07:28:32;-1.30;99.90
16477;DHT22;8349;50.928;6.376;2023-03-01T07:31:01;-1.30;99.90
16477;DHT22;8349;50.928;6.376;2023-03-01T07:33:28;-1.30;99.90
16477;DHT22;8349;50.928;6.376;2023-03-01T07:35:56;-1.20;99.90
16477;DHT22;8349;50.928;6.376;2023-03-01T07:38:24;-1.10;99.90
16477;DHT22;8349;50.928;6.376;2023-03-01T07:40:51;-1.10;99.90
16477;DHT22;8349;50.928;6.376;2023-03-01T07:43:18;-1.00;99.90
16477;DHT22;8349;50.928;6.376;2023-03-01T07:45:45;-0.90;99.90
16477;DHT22;8349;50.928;6.376;2023-03-01T07:48:12;-0.80;99.90
16477;DHT22;8349;50.928;6.376;2023-03-01T07:50:39;-0.70;99.90
16477;DHT22;8349;50.928;6.376;2023-03-01T07:53:06;-0.70;99.90
16477;DHT22;8349;50.928;6.376;2023-03-01T07:55:34;-0.60;99.90
16477;DHT22;8349;50.928;6.376;2023-03-01T07:58:01;-0.50;99.90
16477;DHT22;8349;50.928;6.376;2023-03-01T08:00:27;-0.40;99.90
16477;DHT22;8349;50.928;6.376;2023-03-01T08:02:54;-0.30;99.90
16477;DHT22;8349;50.928;6.376;2023-03-01T08:05:21;-0.20;99.90
16477;DHT22;8349;50.928;6.376;2023-03-01T08:07:48;-0.10;99.90
16477;DHT22;8349;50.928;6.376;2023-03-01T08:10:15;-0.10;99.90
16477;DHT22;8349;50.928;6.376;2023-03-01T08:12:43;0.00;99.90
16477;DHT22;8349;50.928;6.376;2023-03-01T08:15:10;0.00;99.90
16477;DHT22;8349;50.928;6.376;2023-03-01T08:17:37;0.10;99.90
16477;DHT22;8349;50.928;6.376;2023-03-01T08:20:04;0.20;99.90
16477;DHT22;8349;50.928;6.376;2023-03-01T08:22:32;0.30;99.90
16477;DHT22;8349;50.928;6.376;2023-03-01T08:24:59;0.40;99.90
16477;DHT22;8349;50.928;6.376;2023-03-01T08:27:25;0.50;99.90
16477;DHT22;8349;50.928;6.376;2023-03-01T08:29:54;0.50;99.90
16477;DHT22;8349;50.928;6.376;2023-03-01T08:32:20;0.60;99.90
16477;DHT22;8349;50.928;6.376;2023-03-01T08:34:47;0.70;99.90
16477;DHT22;8349;50.928;6.376;2023-03-01T08:37:14;0.70;99.90
16477;DHT22;8349;50.928;6.376;2023-03-01T08:39:41;0.80;99.90
16477;DHT22;8349;50.928;6.376;2023-03-01T08:42:08;0.90;99.90
16477;DHT22;8349;50.928;6.376;2023-03-01T08:44:34;0.90;99.90
16477;DHT22;8349;50.928;6.376;2023-03-01T08:47:02;1.00;99.90
16477;DHT22;8349;50.928;6.376;2023-03-01T08:49:30;1.10;99.90
16477;DHT22;8349;50.928;6.376;2023-03-01T08:51:57;1.20;99.90
16477;DHT22;8349;50.928;6.376;2023-03-01T08:54:24;1.30;99.90
16477;DHT22;8349;50.928;6.376;2023-03-01T08:56:51;1.30;99.90
16477;DHT22;8349;50.928;6.376;2023-03-01T08:59:18;1.40;99.90
16477;DHT22;8349;50.928;6.376;2023-03-01T09:01:44;1.40;99.90
16477;DHT22;8349;50.928;6.376;2023-03-01T09:04:14;1.50;99.90
16477;DHT22;8349;50.928;6.376;2023-03-01T09:06:41;1.60;99.90
16477;DHT22;8349;50.928;6.376;2023-03-01T09:09:11;1.70;99.90
16477;DHT22;8349;50.928;6.376;2023-03-01T09:11:40;1.80;99.90
16477;DHT22;8349;50.928;6.376;2023-03-01T09:14:06;1.90;99.90
16477;DHT22;8349;50.928;6.376;2023-03-01T09:16:33;2.00;99.90
16477;DHT22;8349;50.928;6.376;2023-03-01T09:19:01;2.10;99.90
16477;DHT22;8349;50.928;6.376;2023-03-01T09:21:29;2.20;99.90
16477;DHT22;8349;50.928;6.376;2023-03-01T09:23:56;2.20;99.90
16477;DHT22;8349;50.928;6.376;2023-03-01T09:26:24;2.40;99.90
16477;DHT22;8349;50.928;6.376;2023-03-01T09:28:52;2.50;99.90
16477;DHT22;8349;50.928;6.376;2023-03-01T09:31:20;2.60;99.90
16477;DHT22;8349;50.928;6.376;2023-03-01T09:33:47;2.70;99.90
16477;DHT22;8349;50.928;6.376;2023-03-01T09:36:16;2.80;99.90
16477;DHT22;8349;50.928;6.376;2023-03-01T09:38:44;3.00;99.90
16477;DHT22;8349;50.928;6.376;2023-03-01T09:41:15;3.10;99.90
16477;DHT22;8349;50.928;6.376;2023-03-01T09:43:46;3.30;99.90
16477;DHT22;8349;50.928;6.376;2023-03-01T09:46:19;3.30;99.90
16477;DHT22;8349;50.928;6.376;2023-03-01T09:48:48;3.40;99.90
16477;DHT22;8349;50.928;6.376;2023-03-01T09:51:18;3.50;99.90
16477;DHT22;8349;50.928;6.376;2023-03-01T09:53:47;3.60;99.90
16477;DHT22;8349;50.928;6.376;2023-03-01T09:56:15;3.70;99.90
16477;DHT22;8349;50.928;6.376;2023-03-01T09:58:47;3.80;99.90
16477;DHT22;8349;50.928;6.376;2023-03-01T10:01:25;4.00;99.90
16477;DHT22;8349;50.928;6.376;2023-03-01T10:04:11;4.10;99.90
16477;DHT22;8349;50.928;6.376;2023-03-01T10:06:39;4.20;99.90
16477;DHT22;8349;50.928;6.376;2023-03-01T10:09:11;4.30;99.90
16477;DHT22;8349;50.928;6.376;2023-03-01T10:11:41;4.50;99.90
16477;DHT22;8349;50.928;6.376;2023-03-01T10:14:13;4.50;99.90
16477;DHT22;8349;50.928;6.376;2023-03-01T10:16:43;4.70;99.90
16477;DHT22;8349;50.928;6.376;2023-03-01T10:19:14;4.80;99.90
16477;DHT22;8349;50.928;6.376;2023-03-01T10:21:44;4.90;99.90
16477;DHT22;8349;50.928;6.376;2023-03-01T10:24:14;4.90;99.90
16477;DHT22;8349;50.928;6.376;2023-03-01T10:26:48;5.00;99.90
16477;DHT22;8349;50.928;6.376;2023-03-01T10:29:17;5.20;99.90
16477;DHT22;8349;50.928;6.376;2023-03-01T10:31:47;5.50;99.90
16477;DHT22;8349;50.928;6.376;2023-03-01T10:34:15;5.60;99.90
16477;DHT22;8349;50.928;6.376;2023-03-01T10:36:44;5.60;99.90
16477;DHT22;8349;50.928;6.376;2023-03-01T10:39:13;5.80;99.90
16477;DHT22;8349;50.928;6.376;2023-03-01T10:41:52;6.00;99.90
16477;DHT22;8349;50.928;6.376;2023-03-01T10:44:37;6.20;99.90
16477;DHT22;8349;50.928;6.376;2023-03-01T10:47:04;6.40;99.90
16477;DHT22;8349;50.928;6.376;2023-03-01T10:49:31;6.50;99.90
16477;DHT22;8349;50.928;6.376;2023-03-01T10:51:57;7.80;99.90
16477;DHT22;8349;50.928;6.376;2023-03-01T10:54:39;12.90;99.90
16477;DHT22;8349;50.928;6.376;2023-03-01T10:57:10;16.40;99.90
16477;DHT22;8349;50.928;6.376;2023-03-01T10:59:52;19.40;99.90
16477;DHT22;8349;50.928;6.376;2023-03-01T11:02:28;21.10;99.90
16477;DHT22;8349;50.928;6.376;2023-03-01T11:04:56;23.50;99.90
16477;DHT22;8349;50.928;6.376;2023-03-01T11:07:23;23.70;99.90
16477;DHT22;8349;50.928;6.376;2023-03-01T11:09:51;24.50;99.40
16477;DHT22;8349;50.928;6.376;2023-03-01T11:12:18;25.60;98.90
16477;DHT22;8349;50.928;6.376;2023-03-01T11:14:46;27.10;96.60
16477;DHT22;8349;50.928;6.376;2023-03-01T11:17:15;25.90;95.60
16477;DHT22;8349;50.928;6.376;2023-03-01T11:19:42;26.40;95.70
16477;DHT22;8349;50.928;6.376;2023-03-01T11:22:11;26.00;95.40
16477;DHT22;8349;50.928;6.376;2023-03-01T11:24:39;25.60;94.30
16477;DHT22;8349;50.928;6.376;2023-03-01T11:27:12;27.20;94.50
16477;DHT22;8349;50.928;6.376;2023-03-01T11:29:41;27.70;93.50
16477;DHT22;8349;50.928;6.376;2023-03-01T11:32:11;27.80;93.70
16477;DHT22;8349;50.928;6.376;2023-03-01T11:34:40;28.10;92.70
16477;DHT22;8349;50.928;6.376;2023-03-01T11:37:12;29.10;93.00
16477;DHT22;8349;50.928;6.376;2023-03-01T11:39:43;28.80;92.20
16477;DHT22;8349;50.928;6.376;2023-03-01T11:42:15;27.60;91.50
16477;DHT22;8349;50.928;6.376;2023-03-01T11:44:44;27.70;90.90
16477;DHT22;8349;50.928;6.376;2023-03-01T11:47:25;26.60;91.20
16477;DHT22;8349;50.928;6.376;2023-03-01T11:49:55;25.90;90.90
16477;DHT22;8349;50.928;6.376;2023-03-01T11:52:30;26.60;91.20
16477;DHT22;8349;50.928;6.376;2023-03-01T11:55:04;27.70;90.90
16477;DHT22;8349;50.928;6.376;2023-03-01T11:57:41;27.50;91.90
16477;DHT22;8349;50.928;6.376;2023-03-01T12:00:14;26.50;90.50
16477;DHT22;8349;50.928;6.376;2023-03-01T12:03:08;25.10;90.00
16477;DHT22;8349;50.928;6.376;2023-03-01T12:05:46;25.70;90.30
16477;DHT22;8349;50.928;6.376;2023-03-01T12:08:14;25.40;90.10
16477;DHT22;8349;50.928;6.376;2023-03-01T12:10:45;25.30;91.10
16477;DHT22;8349;50.928;6.376;2023-03-01T12:16:17;27.20;90.10
16477;DHT22;8349;50.928;6.376;2023-03-01T12:18:51;25.70;88.90
16477;DHT22;8349;50.928;6.376;2023-03-01T12:21:24;25.40;89.90
16477;DHT22;8349;50.928;6.376;2023-03-01T12:23:58;25.40;90.30
16477;DHT22;8349;50.928;6.376;2023-03-01T12:26:29;27.30;89.80
16477;DHT22;8349;50.928;6.376;2023-03-01T12:29:08;27.80;89.70
16477;DHT22;8349;50.928;6.376;2023-03-01T12:31:44;28.50;90.00
16477;DHT22;8349;50.928;6.376;2023-03-01T12:34:23;28.00;88.80
16477;DHT22;8349;50.928;6.376;2023-03-01T12:36:58;27.20;87.90
16477;DHT22;8349;50.928;6.376;2023-03-01T12:39:36;26.30;87.80
16477;DHT22;8349;50.928;6.376;2023-03-01T12:42:08;27.80;88.60
16477;DHT22;8349;50.928;6.376;2023-03-01T12:44:48;27.40;86.80
16477;DHT22;8349;50.928;6.376;2023-03-01T12:47:30;27.10;87.50
16477;DHT22;8349;50.928;6.376;2023-03-01T12:50:01;27.10;88.30
16477;DHT22;8349;50.928;6.376;2023-03-01T12:52:32;29.10;88.30
16477;DHT22;8349;50.928;6.376;2023-03-01T12:55:00;28.40;86.10
16477;DHT22;8349;50.928;6.376;2023-03-01T12:57:30;26.90;85.90
16477;DHT22;8349;50.928;6.376;2023-03-01T13:00:06;27.70;87.20
16477;DHT22;8349;50.928;6.376;2023-03-01T13:02:38;28.00;87.60
16477;DHT22;8349;50.928;6.376;2023-03-01T13:05:16;28.10;86.20
16477;DHT22;8349;50.928;6.376;2023-03-01T13:07:48;27.00;85.40
16477;DHT22;8349;50.928;6.376;2023-03-01T13:10:19;27.70;86.10
16477;DHT22;8349;50.928;6.376;2023-03-01T13:12:52;25.70;85.20
16477;DHT22;8349;50.928;6.376;2023-03-01T13:15:32;25.40;87.10
16477;DHT22;8349;50.928;6.376;2023-03-01T13:18:01;25.10;87.70
16477;DHT22;8349;50.928;6.376;2023-03-01T13:20:33;26.20;86.50
16477;DHT22;8349;50.928;6.376;2023-03-01T13:23:01;25.20;85.50
16477;DHT22;8349;50.928;6.376;2023-03-01T13:25:29;24.70;83.70
16477;DHT22;8349;50.928;6.376;2023-03-01T13:30:39;24.30;85.40
16477;DHT22;8349;50.928;6.376;2023-03-01T13:35:49;23.20;84.40
16477;DHT22;8349;50.928;6.376;2023-03-01T13:41:02;23.70;86.10
16477;DHT22;8349;50.928;6.376;2023-03-01T13:43:30;22.10;85.90
16477;DHT22;8349;50.928;6.376;2023-03-01T13:45:58;21.60;85.30
16477;DHT22;8349;50.928;6.376;2023-03-01T13:48:26;21.10;86.20
16477;DHT22;8349;50.928;6.376;2023-03-01T13:50:57;20.60;85.60
16477;DHT22;8349;50.928;6.376;2023-03-01T13:53:26;20.60;86.10
16477;DHT22;8349;50.928;6.376;2023-03-01T13:55:55;20.80;86.80
16477;DHT22;8349;50.928;6.376;2023-03-01T13:58:23;20.10;87.00
16477;DHT22;8349;50.928;6.376;2023-03-01T14:00:57;19.20;86.00
16477;DHT22;8349;50.928;6.376;2023-03-01T14:03:24;19.00;85.90
16477;DHT22;8349;50.928;6.376;2023-03-01T14:06:00;18.80;87.00
16477;DHT22;8349;50.928;6.376;2023-03-01T14:08:28;19.30;87.50
16477;DHT22;8349;50.928;6.376;2023-03-01T14:11:02;19.80;87.10
16477;DHT22;8349;50.928;6.376;2023-03-01T14:13:34;20.00;87.30
16477;DHT22;8349;50.928;6.376;2023-03-01T14:16:07;19.50;86.40
16477;DHT22;8349;50.928;6.376;2023-03-01T14:18:39;19.20;85.10
16477;DHT22;8349;50.928;6.376;2023-03-01T14:21:08;18.90;84.90
16477;DHT22;8349;50.928;6.376;2023-03-01T14:23:37;18.90;85.80
16477;DHT22;8349;50.928;6.376;2023-03-01T14:26:05;19.00;86.30
16477;DHT22;8349;50.928;6.376;2023-03-01T14:28:31;18.70;87.30
16477;DHT22;8349;50.928;6.376;2023-03-01T14:31:02;18.70;88.60
16477;DHT22;8349;50.928;6.376;2023-03-01T14:33:30;18.30;86.90
16477;DHT22;8349;50.928;6.376;2023-03-01T14:35:59;17.80;88.10
16477;DHT22;8349;50.928;6.376;2023-03-01T14:38:34;17.70;87.40
16477;DHT22;8349;50.928;6.376;2023-03-01T14:41:01;17.50;88.30
16477;DHT22;8349;50.928;6.376;2023-03-01T14:43:29;17.20;86.90
16477;DHT22;8349;50.928;6.376;2023-03-01T14:45:56;16.50;87.70
16477;DHT22;8349;50.928;6.376;2023-03-01T14:48:23;16.50;88.70
16477;DHT22;8349;50.928;6.376;2023-03-01T14:50:51;17.10;90.00
16477;DHT22;8349;50.928;6.376;2023-03-01T14:53:18;17.90;89.90
16477;DHT22;8349;50.928;6.376;2023-03-01T14:55:48;18.40;89.30
16477;DHT22;8349;50.928;6.376;2023-03-01T14:58:18;19.00;89.10
16477;DHT22;8349;50.928;6.376;2023-03-01T15:00:47;19.00;89.30
16477;DHT22;8349;50.928;6.376;2023-03-01T15:03:17;18.90;90.10
16477;DHT22;8349;50.928;6.376;2023-03-01T15:05:45;18.20;89.70
16477;DHT22;8349;50.928;6.376;2023-03-01T15:08:16;19.00;89.70
16477;DHT22;8349;50.928;6.376;2023-03-01T15:10:54;19.90;88.60
16477;DHT22;8349;50.928;6.376;2023-03-01T15:13:23;20.00;88.00
16477;DHT22;8349;50.928;6.376;2023-03-01T15:15:51;19.20;88.70
16477;DHT22;8349;50.928;6.376;2023-03-01T15:18:18;19.20;89.40
16477;DHT22;8349;50.928;6.376;2023-03-01T15:20:45;19.30;89.30
16477;DHT22;8349;50.928;6.376;2023-03-01T15:23:17;18.70;88.50
16477;DHT22;8349;50.928;6.376;2023-03-01T15:25:44;18.60;88.80
16477;DHT22;8349;50.928;6.376;2023-03-01T15:28:13;17.80;87.90
16477;DHT22;8349;50.928;6.376;2023-03-01T15:30:45;17.30;87.80
16477;DHT22;8349;50.928;6.376;2023-03-01T15:33:19;17.00;88.50
16477;DHT22;8349;50.928;6.376;2023-03-01T15:35:47;17.10;89.90
16477;DHT22;8349;50.928;6.376;2023-03-01T15:38:29;17.40;90.30
16477;DHT22;8349;50.928;6.376;2023-03-01T15:40:56;17.50;90.20
16477;DHT22;8349;50.928;6.376;2023-03-01T15:43:40;17.40;90.50
16477;DHT22;8349;50.928;6.376;2023-03-01T15:46:12;17.40;90.00
16477;DHT22;8349;50.928;6.376;2023-03-01T15:48:43;17.10;89.90
16477;DHT22;8349;50.928;6.376;2023-03-01T15:51:10;17.10;90.00
16477;DHT22;8349;50.928;6.376;2023-03-01T15:53:39;16.80;90.60
16477;DHT22;8349;50.928;6.376;2023-03-01T15:56:05;16.50;90.60
16477;DHT22;8349;50.928;6.376;2023-03-01T15:58:33;16.60;90.30
16477;DHT22;8349;50.928;6.376;2023-03-01T16:01:01;16.20;90.50
16477;DHT22;8349;50.928;6.376;2023-03-01T16:03:27;15.80;90.50
16477;DHT22;8349;50.928;6.376;2023-03-01T16:05:54;16.20;90.90
16477;DHT22;8349;50.928;6.376;2023-03-01T16:08:21;16.00;91.20
16477;DHT22;8349;50.928;6.376;2023-03-01T16:10:48;15.70;90.90
16477;DHT22;8349;50.928;6.376;2023-03-01T16:13:16;15.30;91.40